Time;durP1;ratioP1;P1;durP2;ratioP2;P2;SDS_P1;SDS_P2;PMS_P1;PMS_P2;Temp;Humidity;BMP_temperature;BMP_pressure;BME280_temperature;BME280_humidity;BME280_pressure;Samples;Min_cycle;Max_cycle;Signal;HPM_P1;HPM_P2
2022/12/14 00:07:29;;;;;;;15.73;11.80;;;;;3.40;97680.00;;;;16573789;28;20284;-70
2022/12/14 00:15:32;;;;;;;17.40;12.40;;;;;3.30;97659.00;;;;16584946;28;20200;-70
2022/12/14 00:23:37;;;;;;;18.33;11.70;;;;;3.00;97638.00;;;;16575441;28;20366;-70
2022/12/14 00:31:39;;;;;;;16.43;13.20;;;;;3.20;97629.00;;;;16569845;28;20215;-70
2022/12/14 00:39:43;;;;;;;15.67;12.87;;;;;3.20;97633.00;;;;16580442;28;20226;-70
2022/12/14 00:47:46;;;;;;;15.07;11.50;;;;;3.40;97621.00;;;;16589034;28;20227;-70
2022/12/14 00:55:50;;;;;;;16.77;13.33;;;;;3.20;97612.00;;;;16569648;28;20278;-70
2022/12/14 01:04:15;;;;;;;21.50;12.87;;;;;3.30;97602.00;;;;16581088;28;20233;-70
2022/12/14 01:12:18;;;;;;;15.77;11.97;;;;;3.50;97633.00;;;;16572595;28;20681;-70
2022/12/14 01:20:20;;;;;;;14.83;12.47;;;;;3.40;97622.00;;;;16585763;28;20227;-70
2022/12/14 01:28:24;;;;;;;16.73;13.47;;;;;3.30;97612.00;;;;16567437;28;20322;-69
2022/12/14 01:36:29;;;;;;;15.90;12.70;;;;;3.20;97596.00;;;;16564520;28;20684;-69
2022/12/14 01:44:55;;;;;;;16.60;12.57;;;;;3.50;97625.00;;;;16584789;28;20231;-70
2022/12/14 01:53:01;;;;;;;15.77;13.53;;;;;3.70;97610.00;;;;16587468;28;20286;-70
2022/12/14 02:01:05;;;;;;;18.07;12.23;;;;;3.60;97592.00;;;;16582955;28;20231;-70
2022/12/14 02:09:10;;;;;;;21.10;14.67;;;;;3.60;97570.00;;;;16579720;28;20313;-69
2022/12/14 02:17:15;;;;;;;17.43;14.50;;;;;3.30;97560.00;;;;16562397;28;20227;-69
2022/12/14 02:25:41;;;;;;;20.93;13.07;;;;;3.20;97571.00;;;;16571611;28;20215;-69
2022/12/14 02:33:48;;;;;;;24.13;15.77;;;;;3.40;97559.00;;;;16573877;28;20199;-70
2022/12/14 02:41:57;;;;;;;21.70;16.63;;;;;3.30;97552.00;;;;16591781;28;20237;-69
2022/12/14 02:50:07;;;;;;;20.87;14.83;;;;;3.40;97553.00;;;;16594175;28;20223;-70
2022/12/14 02:58:14;;;;;;;16.27;13.57;;;;;3.30;97544.00;;;;16578680;28;20366;-69
2022/12/14 03:06:24;;;;;;;19.60;15.10;;;;;3.40;97533.00;;;;16579332;28;20223;-69
2022/12/14 03:14:29;;;;;;;22.03;14.60;;;;;3.50;97526.00;;;;16591803;28;20219;-70
2022/12/14 03:22:36;;;;;;;20.33;14.83;;;;;3.10;97523.00;;;;16570580;28;20308;-69
2022/12/14 03:30:42;;;;;;;25.13;14.90;;;;;3.10;97525.00;;;;16591395;28;20255;-70
2022/12/14 03:38:50;;;;;;;18.13;14.93;;;;;3.10;97528.00;;;;16576801;28;20259;-70
2022/12/14 03:46:55;;;;;;;19.00;16.00;;;;;2.80;97495.00;;;;16572787;28;20231;-70
2022/12/14 03:55:07;;;;;;;18.90;15.33;;;;;3.30;97479.00;;;;16591195;28;20273;-69
2022/12/14 04:03:17;;;;;;;26.20;16.50;;;;;2.90;97483.00;;;;16571235;28;20231;-70
2022/12/14 04:19:44;;;;;;;22.80;16.50;;;;;2.80;97455.00;;;;16567125;28;20731;-68
2022/12/14 04:27:50;;;;;;;21.23;16.40;;;;;2.80;97447.00;;;;16587826;28;20223;-69
2022/12/14 04:35:55;;;;;;;23.53;16.90;;;;;3.00;97422.00;;;;16585285;28;20225;-69
2022/12/14 04:44:03;;;;;;;24.27;17.40;;;;;3.10;97412.00;;;;16586082;28;20314;-69
2022/12/14 04:52:11;;;;;;;21.63;16.50;;;;;3.10;97416.00;;;;16585606;28;20258;-69
2022/12/14 05:00:16;;;;;;;22.47;18.10;;;;;3.50;97404.00;;;;16586073;28;20369;-69
2022/12/14 05:08:23;;;;;;;21.20;17.00;;;;;3.60;97386.00;;;;16557442;28;20317;-69
2022/12/14 05:16:27;;;;;;;22.97;17.63;;;;;3.90;97377.00;;;;16580224;28;20249;-69
2022/12/14 05:24:29;;;;;;;23.63;18.17;;;;;3.90;97383.00;;;;16585641;28;20273;-69
2022/12/14 05:32:34;;;;;;;22.57;16.90;;;;;4.10;97376.00;;;;16566418;28;20709;-70
2022/12/14 05:40:36;;;;;;;22.33;18.37;;;;;4.10;97355.00;;;;16577945;28;20231;-70
2022/12/14 05:48:40;;;;;;;20.97;17.07;;;;;4.20;97365.00;;;;16582200;28;20301;-70
2022/12/14 05:56:42;;;;;;;21.80;17.60;;;;;4.40;97351.00;;;;16560711;28;20754;-70
2022/12/14 06:04:46;;;;;;;23.83;18.90;;;;;4.40;97334.00;;;;16555487;28;20358;-70
2022/12/14 06:12:49;;;;;;;26.23;20.33;;;;;4.40;97319.00;;;;16579498;28;20310;-69
2022/12/14 06:20:52;;;;;;;22.43;18.10;;;;;4.50;97331.00;;;;16559485;28;20230;-71
2022/12/14 06:28:56;;;;;;;23.80;19.20;;;;;4.60;97314.00;;;;16552003;28;20238;-71
2022/12/14 06:37:00;;;;;;;25.37;19.50;;;;;3.60;97349.00;;;;16540451;28;20220;-70
2022/12/14 06:45:03;;;;;;;25.37;20.53;;;;;4.60;97321.00;;;;16557271;28;20228;-70
2022/12/14 06:53:06;;;;;;;24.60;19.50;;;;;4.70;97303.00;;;;16562408;28;20222;-69
2022/12/14 07:01:11;;;;;;;32.43;21.23;;;;;4.90;97269.00;;;;16539427;28;20388;-69
2022/12/14 07:09:15;;;;;;;27.57;21.57;;;;;4.60;97278.00;;;;16573808;28;20707;-70
2022/12/14 07:17:18;;;;;;;34.00;22.63;;;;;3.10;97299.00;;;;16576097;28;20696;-69
2022/12/14 07:25:22;;;;;;;38.27;21.57;;;;;3.00;97281.00;;;;16574864;28;20259;-68
2022/12/14 07:33:24;;;;;;;53.60;34.90;;;;;4.20;97254.00;;;;16560679;28;20735;-68
2022/12/14 07:41:30;;;;;;;31.90;21.97;;;;;3.00;97275.00;;;;16572604;28;20219;-68
2022/12/14 07:49:33;;;;;;;32.53;23.87;;;;;2.80;97263.00;;;;16577809;28;20232;-68
2022/12/14 07:57:42;;;;;;;33.80;24.90;;;;;3.00;97256.00;;;;16577715;28;20227;-69
2022/12/14 08:05:44;;;;;;;30.90;23.30;;;;;3.20;97262.00;;;;16571720;28;20227;-68
2022/12/14 08:13:52;;;;;;;29.00;21.77;;;;;4.50;97229.00;;;;16555201;28;20337;-70
2022/12/14 08:21:54;;;;;;;35.90;25.10;;;;;4.70;97224.00;;;;16553016;28;20318;-68
2022/12/14 08:29:58;;;;;;;30.00;22.00;;;;;4.40;97208.00;;;;16574793;28;20236;-68
2022/12/14 08:38:01;;;;;;;30.13;23.87;;;;;4.40;97217.00;;;;16561906;28;20714;-68
2022/12/14 08:46:08;;;;;;;31.00;23.60;;;;;4.90;97218.00;;;;16568122;28;20229;-68
2022/12/14 08:54:11;;;;;;;35.00;24.40;;;;;4.30;97233.00;;;;16568564;28;20297;-69
2022/12/14 09:02:15;;;;;;;34.23;23.57;;;;;3.70;97238.00;;;;16536508;28;20654;-67
2022/12/14 09:10:18;;;;;;;35.67;23.87;;;;;4.60;97228.00;;;;16568134;28;20227;-68
2022/12/14 09:18:22;;;;;;;34.50;25.90;;;;;5.00;97219.00;;;;16549383;28;20223;-69
2022/12/14 09:26:24;;;;;;;30.93;25.67;;;;;5.50;97205.00;;;;16561854;28;20829;-68
2022/12/14 09:34:28;;;;;;;35.73;26.60;;;;;4.60;97212.00;;;;16561881;28;20207;-69
2022/12/14 09:42:43;;;;;;;38.13;27.43;;;;;5.60;97182.00;;;;16530146;28;20599;-67
2022/12/14 09:50:49;;;;;;;36.27;25.70;;;;;5.40;97186.00;;;;16553331;28;20239;-68
2022/12/14 09:58:54;;;;;;;32.50;25.77;;;;;5.50;97186.00;;;;16565877;28;20229;-70
2022/12/14 10:07:04;;;;;;;44.13;27.00;;;;;4.70;97176.00;;;;16561507;28;20661;-69
2022/12/14 10:15:15;;;;;;;33.77;24.13;;;;;5.30;97173.00;;;;16517412;28;20208;-69
2022/12/14 10:23:22;;;;;;;45.93;30.70;;;;;5.70;97177.00;;;;16556151;28;20270;-68
2022/12/14 10:31:31;;;;;;;56.73;36.60;;;;;5.40;97165.00;;;;16552147;28;20320;-67
2022/12/14 10:39:47;;;;;;;50.87;37.57;;;;;5.50;97163.00;;;;16577787;28;20225;-68
2022/12/14 10:47:52;;;;;;;50.60;34.07;;;;;5.50;97155.00;;;;16556314;28;20270;-67
2022/12/14 10:55:59;;;;;;;47.23;33.50;;;;;5.50;97143.00;;;;16573710;28;20230;-67
2022/12/14 11:04:02;;;;;;;48.73;32.60;;;;;5.40;97136.00;;;;16573333;28;20303;-68
2022/12/14 11:12:08;;;;;;;47.03;32.70;;;;;6.10;97141.00;;;;16581702;28;20322;-68
2022/12/14 11:20:19;;;;;;;41.83;29.30;;;;;5.70;97137.00;;;;16583416;28;20220;-69
2022/12/14 11:28:28;;;;;;;75.93;45.40;;;;;6.40;97129.00;;;;16580300;28;20270;-69
2022/12/14 11:36:34;;;;;;;46.33;33.93;;;;;6.00;97136.00;;;;16561425;28;20225;-68
2022/12/14 11:44:38;;;;;;;42.10;30.00;;;;;5.90;97138.00;;;;16565231;28;20749;-68
2022/12/14 11:52:42;;;;;;;45.63;30.30;;;;;6.50;97116.00;;;;16590917;28;20302;-69
2022/12/14 12:00:49;;;;;;;39.27;28.70;;;;;6.50;97114.00;;;;16559819;28;20368;-69
2022/12/14 12:08:56;;;;;;;68.50;44.17;;;;;6.70;97098.00;;;;16560202;28;20756;-68
2022/12/14 12:17:00;;;;;;;40.37;30.90;;;;;6.70;97118.00;;;;16566701;28;20230;-68
2022/12/14 12:25:05;;;;;;;40.90;30.00;;;;;5.40;97133.00;;;;16559677;28;20221;-69
2022/12/14 12:33:19;;;;;;;42.97;32.23;;;;;5.90;97126.00;;;;16564461;28;20238;-69
2022/12/14 12:41:29;;;;;;;44.70;30.93;;;;;5.30;97145.00;;;;16573338;28;20332;-69
2022/12/14 12:49:33;;;;;;;40.57;31.53;;;;;5.20;97153.00;;;;16561754;28;20224;-68
2022/12/14 12:57:40;;;;;;;42.30;33.00;;;;;4.50;97161.00;;;;16545614;28;20310;-68
2022/12/14 13:05:44;;;;;;;52.50;35.17;;;;;4.00;97183.00;;;;16556406;28;20306;-67
2022/12/14 13:13:50;;;;;;;53.10;36.87;;;;;3.50;97200.00;;;;16569998;28;20278;-68
2022/12/14 13:21:54;;;;;;;53.60;35.90;;;;;3.20;97209.00;;;;16546806;28;20313;-68
2022/12/14 13:30:09;;;;;;;64.40;43.20;;;;;3.60;97211.00;;;;16565428;28;20247;-68
2022/12/14 13:38:25;;;;;;;53.93;36.33;;;;;3.60;97208.00;;;;16560020;28;20370;-68
2022/12/14 13:46:28;;;;;;;53.10;35.60;;;;;4.30;97193.00;;;;16543910;28;20247;-67
2022/12/14 13:54:38;;;;;;;52.00;36.93;;;;;4.10;97210.00;;;;16533805;28;20648;-67
2022/12/14 14:02:41;;;;;;;54.57;39.00;;;;;3.80;97216.00;;;;16535501;28;20228;-67
2022/12/14 14:10:46;;;;;;;52.93;34.90;;;;;3.60;97239.00;;;;16566203;28;20603;-68
2022/12/14 14:18:56;;;;;;;54.80;34.63;;;;;3.20;97254.00;;;;16579681;28;20219;-68
2022/12/14 14:27:09;;;;;;;55.87;34.90;;;;;3.00;97271.00;;;;16582835;28;20310;-67
2022/12/14 14:35:24;;;;;;;56.40;34.40;;;;;3.10;97270.00;;;;16573918;28;20204;-68
2022/12/14 14:43:31;;;;;;;48.63;35.20;;;;;3.00;97284.00;;;;16576858;28;20223;-68
2022/12/14 14:51:36;;;;;;;63.70;42.70;;;;;3.00;97310.00;;;;16577722;28;20285;-68
2022/12/14 14:59:44;;;;;;;47.80;32.20;;;;;2.90;97328.00;;;;16570590;28;20778;-70
2022/12/14 15:07:47;;;;;;;52.00;34.77;;;;;3.10;97340.00;;;;16584730;28;20793;-70
2022/12/14 15:15:55;;;;;;;46.70;30.73;;;;;2.90;97370.00;;;;16563330;28;20217;-69
2022/12/14 15:23:57;;;;;;;50.33;33.70;;;;;3.20;97367.00;;;;16578627;28;20208;-68
2022/12/14 15:32:02;;;;;;;49.43;32.90;;;;;3.30;97393.00;;;;16576976;28;20703;-69
2022/12/14 15:40:10;;;;;;;57.30;35.40;;;;;3.00;97422.00;;;;16569064;28;20230;-69
2022/12/14 15:48:15;;;;;;;55.00;34.83;;;;;3.30;97430.00;;;;16578325;28;20354;-70
2022/12/14 15:56:22;;;;;;;46.13;29.77;;;;;2.80;97436.00;;;;16567518;28;20857;-69
2022/12/14 16:04:27;;;;;;;45.27;28.73;;;;;2.70;97461.00;;;;16572506;28;20634;-70
2022/12/14 16:12:37;;;;;;;40.47;28.80;;;;;2.50;97472.00;;;;16562415;28;20231;-69
2022/12/14 16:20:44;;;;;;;40.50;28.00;;;;;2.50;97474.00;;;;16546963;28;20273;-70
2022/12/14 16:28:47;;;;;;;45.97;29.23;;;;;2.60;97479.00;;;;16589370;28;20226;-70
2022/12/14 16:36:51;;;;;;;33.97;25.37;;;;;2.50;97478.00;;;;16577668;28;20215;-70
2022/12/14 16:44:54;;;;;;;41.97;27.40;;;;;2.40;97491.00;;;;16585387;28;20228;-71
2022/12/14 16:53:15;;;;;;;40.93;26.70;;;;;2.40;97512.00;;;;16572435;28;20663;-69
2022/12/14 17:01:18;;;;;;;41.40;30.10;;;;;2.60;97511.00;;;;16582667;28;20268;-70
2022/12/14 17:09:23;;;;;;;45.13;29.73;;;;;2.50;97522.00;;;;16560556;28;20223;-68
2022/12/14 17:17:32;;;;;;;39.70;28.40;;;;;2.60;97532.00;;;;16575874;28;20216;-68
2022/12/14 17:25:36;;;;;;;43.07;27.67;;;;;2.60;97542.00;;;;16562986;28;20228;-67
2022/12/14 17:33:38;;;;;;;43.37;27.67;;;;;2.30;97556.00;;;;16577717;28;20282;-68
2022/12/14 17:41:44;;;;;;;43.47;29.60;;;;;2.30;97546.00;;;;16581202;28;20303;-69
2022/12/14 17:49:47;;;;;;;48.60;31.30;;;;;2.50;97546.00;;;;16557597;28;20238;-68
2022/12/14 17:57:51;;;;;;;44.10;30.60;;;;;2.70;97555.00;;;;16552859;28;20773;-67
2022/12/14 18:05:54;;;;;;;42.70;29.10;;;;;2.60;97555.00;;;;16562577;28;20651;-70
2022/12/14 18:13:58;;;;;;;46.20;30.10;;;;;2.40;97573.00;;;;16572343;28;20330;-69
2022/12/14 18:22:00;;;;;;;39.90;29.13;;;;;2.30;97580.00;;;;16565598;28;20650;-69
2022/12/14 18:30:05;;;;;;;35.53;25.83;;;;;2.40;97594.00;;;;16583213;28;20629;-69
2022/12/14 18:38:07;;;;;;;39.53;26.83;;;;;2.60;97568.00;;;;16578407;28;20310;-70
2022/12/14 18:46:12;;;;;;;41.80;26.70;;;;;2.50;97581.00;;;;16576965;28;20599;-68
2022/12/14 18:54:14;;;;;;;37.80;25.60;;;;;2.60;97582.00;;;;16580921;28;20228;-68
2022/12/14 19:02:18;;;;;;;38.23;27.17;;;;;2.70;97596.00;;;;16580222;28;20772;-69
2022/12/14 19:10:23;;;;;;;36.00;24.40;;;;;2.40;97605.00;;;;16553240;28;20253;-69
2022/12/14 19:18:26;;;;;;;37.10;25.70;;;;;2.50;97614.00;;;;16579138;28;20730;-69
2022/12/14 19:26:30;;;;;;;35.73;24.50;;;;;2.40;97627.00;;;;16591701;28;20218;-69
2022/12/14 19:34:34;;;;;;;40.00;26.43;;;;;2.70;97620.00;;;;16589434;28;20257;-70
2022/12/14 19:42:36;;;;;;;38.87;26.57;;;;;2.60;97630.00;;;;16578341;28;20691;-70
2022/12/14 19:50:41;;;;;;;38.60;26.33;;;;;2.80;97626.00;;;;16590741;28;20362;-70
2022/12/14 19:58:43;;;;;;;38.03;26.50;;;;;2.60;97637.00;;;;16594237;28;20222;-70
2022/12/14 20:06:47;;;;;;;42.10;29.00;;;;;2.30;97640.00;;;;16581405;28;20308;-70
2022/12/14 20:14:50;;;;;;;40.73;28.13;;;;;2.70;97649.00;;;;16557444;28;20213;-70
2022/12/14 20:22:54;;;;;;;43.43;28.80;;;;;2.30;97662.00;;;;16583860;28;20306;-69
2022/12/14 20:30:57;;;;;;;41.50;29.20;;;;;2.30;97671.00;;;;16589846;28;20297;-69
2022/12/14 20:39:05;;;;;;;43.47;29.20;;;;;2.30;97673.00;;;;16565555;28;20227;-69
2022/12/14 20:47:08;;;;;;;48.13;29.90;;;;;2.50;97671.00;;;;16566026;28;20265;-70
2022/12/14 20:55:11;;;;;;;49.53;31.53;;;;;2.30;97681.00;;;;16591103;28;20208;-70
2022/12/14 21:03:15;;;;;;;49.17;32.03;;;;;2.30;97679.00;;;;16584020;28;20591;-68
2022/12/14 21:19:41;;;;;;;49.33;33.63;;;;;2.50;97690.00;;;;16578537;28;20215;-68
2022/12/14 21:27:45;;;;;;;54.07;34.57;;;;;2.70;97681.00;;;;16569271;28;20733;-68
2022/12/14 21:35:47;;;;;;;53.20;34.90;;;;;2.80;97674.00;;;;16560485;28;20863;-67
2022/12/14 21:43:51;;;;;;;50.10;32.80;;;;;2.30;97705.00;;;;16550815;28;20286;-69
2022/12/14 21:51:54;;;;;;;49.23;34.10;;;;;2.70;97704.00;;;;16568706;28;20242;-68
2022/12/14 21:59:58;;;;;;;45.80;32.03;;;;;2.50;97700.00;;;;16582922;28;20286;-68
2022/12/14 22:08:01;;;;;;;46.13;32.07;;;;;2.80;97709.00;;;;16568055;28;20314;-67
2022/12/14 22:16:07;;;;;;;41.50;30.10;;;;;2.80;97716.00;;;;16585089;28;20334;-69
2022/12/14 22:24:10;;;;;;;53.10;34.87;;;;;3.10;97711.00;;;;16585189;28;20325;-69
2022/12/14 22:32:14;;;;;;;50.10;35.40;;;;;3.10;97703.00;;;;16584780;28;20313;-68
2022/12/14 22:40:17;;;;;;;53.17;35.07;;;;;2.70;97706.00;;;;16582896;28;20822;-68
2022/12/14 22:48:20;;;;;;;50.83;33.47;;;;;2.40;97706.00;;;;16565931;28;20268;-68
2022/12/14 22:56:28;;;;;;;49.17;32.07;;;;;2.60;97702.00;;;;16592006;28;20298;-68
2022/12/14 23:04:32;;;;;;;50.70;34.70;;;;;2.80;97710.00;;;;16596584;28;20269;-68
